createdAt,value
2023-03-26T00:01:14.293Z,72.16
2023-03-26T00:06:24.298Z,72.42
2023-03-26T00:11:33.396Z,72.63
2023-03-26T00:16:43.145Z,72.72
2023-03-26T00:21:52.904Z,72.67
2023-03-26T00:27:01.457Z,72.64
2023-03-26T00:32:09.749Z,72.59
2023-03-26T00:37:18.967Z,72.52
2023-03-26T00:42:28.031Z,72.51
2023-03-26T00:47:37.142Z,72.47
2023-03-26T00:52:46.886Z,72.38
2023-03-26T00:57:55.841Z,72.19
2023-03-26T01:03:04.948Z,72.08
2023-03-26T01:08:19.783Z,71.98
2023-03-26T01:13:28.617Z,71.91
2023-03-26T01:18:41.450Z,71.85
2023-03-26T01:23:53.065Z,71.85
2023-03-26T01:29:04.874Z,71.95
2023-03-26T01:34:20.467Z,72.00
2023-03-26T01:39:39.221Z,71.95
2023-03-26T01:44:52.361Z,71.88
2023-03-26T01:50:00.692Z,71.83
2023-03-26T01:55:12.066Z,71.84
2023-03-26T02:00:28.139Z,71.89
2023-03-26T02:05:44.383Z,71.95
2023-03-26T02:10:58.757Z,72.02
2023-03-26T02:16:08.925Z,72.19
2023-03-26T02:21:20.872Z,72.58
2023-03-26T02:26:29.131Z,72.99
2023-03-26T02:31:48.691Z,73.33
2023-03-26T02:36:57.593Z,73.64
2023-03-26T02:42:06.474Z,73.93
2023-03-26T02:47:19.929Z,74.10
2023-03-26T02:52:34.218Z,74.23
2023-03-26T02:57:43.257Z,74.31
2023-03-26T03:03:04.473Z,74.29
2023-03-26T03:08:12.833Z,74.12
2023-03-26T03:13:27.844Z,73.88
2023-03-26T03:18:36.871Z,73.73
2023-03-26T03:23:45.620Z,73.76
2023-03-26T03:28:55.569Z,73.94
2023-03-26T03:34:04.080Z,74.14
2023-03-26T03:39:14.741Z,74.28
2023-03-26T03:44:23.716Z,74.40
2023-03-26T03:49:32.050Z,74.44
2023-03-26T03:54:39.448Z,74.48
2023-03-26T04:00:01.893Z,74.52
2023-03-26T04:05:23.980Z,74.51
2023-03-26T04:10:33.073Z,74.49
2023-03-26T04:16:01.661Z,74.47
2023-03-26T04:21:12.930Z,74.43
2023-03-26T04:26:21.880Z,74.40
2023-03-26T04:31:43.530Z,74.38
2023-03-26T04:36:55.469Z,74.42
2023-03-26T04:42:07.780Z,74.50
2023-03-26T04:47:26.219Z,74.52
2023-03-26T04:52:34.962Z,74.56
2023-03-26T04:58:06.337Z,74.57
2023-03-26T05:03:51.729Z,74.64
2023-03-26T05:09:00.237Z,74.72
2023-03-26T05:14:33.614Z,74.82
2023-03-26T05:19:43.048Z,74.92
2023-03-26T05:24:51.867Z,74.95
2023-03-26T05:30:07.749Z,74.99
2023-03-26T05:35:21.106Z,75.03
2023-03-26T05:40:30.210Z,75.10
2023-03-26T05:45:41.306Z,75.21
2023-03-26T05:51:00.864Z,75.18
2023-03-26T05:56:13.000Z,75.20
2023-03-26T06:01:56.824Z,75.21
2023-03-26T06:07:05.457Z,75.27
2023-03-26T06:12:14.667Z,75.28
2023-03-26T06:17:23.182Z,75.41
2023-03-26T06:23:03.649Z,75.50
2023-03-26T06:28:29.178Z,75.59
2023-03-26T06:33:56.711Z,75.71
2023-03-26T06:39:07.876Z,75.77
2023-03-26T06:44:19.268Z,75.71
2023-03-26T06:49:59.573Z,75.61
2023-03-26T06:55:17.516Z,75.59
2023-03-26T07:00:42.665Z,75.58
2023-03-26T07:06:10.020Z,75.70
2023-03-26T07:11:58.570Z,75.85
2023-03-26T07:17:15.859Z,75.86
2023-03-26T07:22:38.260Z,76.01
2023-03-26T07:28:14.515Z,76.34
2023-03-26T07:33:47.250Z,76.41
2023-03-26T07:39:38.046Z,76.36
2023-03-26T07:45:13.372Z,76.46
2023-03-26T07:50:42.846Z,76.24
2023-03-26T07:56:07.679Z,75.97
2023-03-26T08:01:41.829Z,75.40
2023-03-26T08:07:02.463Z,75.18
2023-03-26T08:12:41.161Z,75.16
2023-03-26T08:17:55.118Z,75.21
2023-03-26T08:23:09.757Z,75.16
2023-03-26T08:28:33.889Z,74.97
2023-03-26T08:33:42.671Z,74.79
2023-03-26T08:38:52.830Z,74.69
2023-03-26T08:44:19.027Z,74.11
2023-03-26T08:50:00.300Z,73.54
2023-03-26T08:55:31.189Z,73.68
2023-03-26T09:00:59.401Z,73.29
2023-03-26T09:06:52.595Z,72.79
2023-03-26T09:12:32.741Z,72.12
2023-03-26T09:18:11.374Z,71.63
2023-03-26T09:23:42.132Z,71.66
2023-03-26T09:29:24.018Z,71.73
2023-03-26T09:34:35.763Z,71.33
2023-03-26T09:39:59.854Z,70.54
2023-03-26T09:45:45.421Z,69.14
2023-03-26T09:51:17.769Z,68.86
2023-03-26T09:56:39.711Z,69.26
2023-03-26T10:01:59.517Z,68.92
2023-03-26T10:07:19.142Z,68.62
2023-03-26T10:12:37.504Z,68.35
2023-03-26T10:18:02.731Z,67.92
2023-03-26T10:24:03.007Z,67.92
2023-03-26T10:29:26.523Z,68.26
2023-03-26T10:34:52.666Z,68.30
2023-03-26T10:40:24.677Z,68.39
2023-03-26T10:45:48.893Z,68.49
2023-03-26T10:51:25.757Z,68.61
2023-03-26T10:56:38.352Z,68.81
2023-03-26T11:02:02.101Z,69.43
2023-03-26T11:07:21.708Z,70.36
2023-03-26T11:12:39.561Z,70.62
2023-03-26T11:18:00.827Z,70.46
2023-03-26T11:23:24.540Z,70.48
2023-03-26T11:29:03.284Z,69.61
2023-03-26T11:34:20.979Z,68.91
2023-03-26T11:39:31.444Z,67.61
2023-03-26T11:44:44.838Z,67.37
2023-03-26T11:49:55.847Z,67.60
2023-03-26T11:55:04.542Z,68.65
2023-03-26T12:00:19.177Z,69.72
2023-03-26T12:05:31.995Z,70.48
2023-03-26T12:10:44.714Z,70.81
2023-03-26T12:15:53.752Z,70.61
2023-03-26T12:21:11.095Z,70.22
2023-03-26T12:26:23.582Z,70.19
2023-03-26T12:31:31.588Z,69.80
2023-03-26T12:36:40.550Z,69.25
2023-03-26T12:44:42.568Z,69.14
2023-03-26T12:47:56.570Z,69.99
2023-03-26T12:53:08.308Z,70.85
2023-03-26T12:58:41.540Z,70.69
2023-03-26T13:04:10.147Z,70.05
2023-03-26T13:09:57.343Z,69.29
2023-03-26T13:15:18.070Z,68.50
2023-03-26T13:20:34.046Z,68.25
2023-03-26T13:25:56.493Z,67.91
2023-03-26T13:31:11.195Z,67.64
2023-03-26T13:36:25.164Z,67.61
2023-03-26T13:41:46.507Z,67.51
2023-03-26T13:47:01.487Z,67.57
2023-03-26T13:52:14.763Z,67.60
2023-03-26T13:57:27.274Z,67.65
2023-03-26T14:02:39.499Z,67.78
2023-03-26T14:07:49.765Z,68.23
2023-03-26T14:13:02.438Z,68.72
2023-03-26T14:18:27.032Z,69.05
2023-03-26T14:23:54.708Z,69.29
2023-03-26T14:29:31.485Z,69.68
2023-03-26T14:34:54.939Z,70.60
2023-03-26T14:40:32.605Z,71.68
2023-03-26T14:46:08.239Z,71.98
2023-03-26T14:51:29.137Z,71.99
2023-03-26T14:57:04.874Z,71.60
2023-03-26T15:02:47.575Z,70.39
2023-03-26T15:08:23.832Z,70.12
2023-03-26T15:14:12.888Z,69.90
2023-03-26T15:19:47.270Z,69.82
2023-03-26T15:25:30.557Z,69.86
2023-03-26T15:31:10.337Z,70.00
2023-03-26T15:37:00.833Z,70.06
2023-03-26T15:42:17.501Z,70.23
2023-03-26T15:47:54.612Z,70.65
2023-03-26T15:53:15.233Z,71.15
2023-03-26T15:58:31.162Z,71.39
2023-03-26T16:03:50.860Z,71.56
2023-03-26T16:09:13.205Z,71.58
2023-03-26T16:14:24.534Z,71.18
2023-03-26T16:19:52.409Z,70.78
2023-03-26T16:25:27.357Z,70.46
2023-03-26T16:30:38.152Z,70.16
2023-03-26T16:36:18.948Z,69.95
2023-03-26T16:41:30.936Z,69.88
2023-03-26T16:46:52.265Z,69.94
2023-03-26T16:52:13.212Z,70.04
2023-03-26T16:57:40.310Z,70.13
2023-03-26T17:03:00.333Z,70.18
2023-03-26T17:08:36.400Z,70.31
2023-03-26T17:13:56.764Z,70.55
2023-03-26T17:19:16.162Z,70.63
2023-03-26T17:24:39.449Z,70.60
2023-03-26T17:30:38.227Z,70.52
2023-03-26T17:35:48.717Z,70.56
2023-03-26T17:40:59.163Z,70.59
2023-03-26T17:46:15.380Z,70.64
2023-03-26T17:51:49.280Z,70.70
2023-03-26T17:57:03.898Z,70.70
2023-03-26T18:02:18.854Z,70.55
2023-03-26T18:07:57.327Z,70.39
2023-03-26T18:13:37.743Z,70.22
2023-03-26T18:18:53.173Z,69.93
2023-03-26T18:24:03.386Z,69.74
2023-03-26T18:29:27.670Z,69.61
2023-03-26T18:34:41.829Z,69.37
2023-03-26T18:40:02.706Z,68.94
2023-03-26T18:45:18.615Z,68.71
2023-03-26T18:50:30.598Z,68.80
2023-03-26T18:55:39.998Z,68.94
2023-03-26T19:00:50.371Z,69.23
2023-03-26T19:06:00.240Z,69.54
2023-03-26T19:11:10.919Z,69.87
2023-03-26T19:16:26.810Z,70.21
2023-03-26T19:21:36.461Z,70.55
2023-03-26T19:26:45.522Z,70.89
2023-03-26T19:32:03.482Z,71.24
2023-03-26T19:37:25.530Z,71.61
2023-03-26T19:42:44.059Z,71.97
2023-03-26T19:48:07.358Z,72.39
2023-03-26T19:53:33.328Z,72.79
2023-03-26T19:58:42.490Z,73.10
2023-03-26T20:03:53.933Z,73.33
2023-03-26T20:09:01.589Z,73.48
2023-03-26T20:14:16.001Z,73.62
2023-03-26T20:19:25.472Z,73.66
2023-03-26T20:24:35.207Z,73.62
2023-03-26T20:29:44.126Z,73.62
2023-03-26T20:34:53.150Z,73.63
2023-03-26T20:40:01.451Z,73.62
2023-03-26T20:45:19.830Z,73.63
2023-03-26T20:50:28.808Z,73.68
2023-03-26T20:55:37.429Z,73.78
2023-03-26T21:00:46.939Z,73.87
2023-03-26T21:05:55.459Z,73.99
2023-03-26T21:11:03.863Z,74.06
2023-03-26T21:16:15.019Z,74.12
2023-03-26T21:21:37.496Z,74.19
2023-03-26T21:26:51.653Z,74.21
2023-03-26T21:32:00.700Z,74.21
2023-03-26T21:37:09.521Z,74.19
2023-03-26T21:42:18.306Z,74.14
2023-03-26T21:47:27.535Z,74.14
2023-03-26T21:52:37.596Z,74.12
2023-03-26T21:58:03.636Z,74.09
2023-03-26T22:03:21.120Z,74.01
2023-03-26T22:08:34.886Z,73.87
2023-03-26T22:13:43.166Z,73.73
2023-03-26T22:18:51.265Z,73.52
2023-03-26T22:23:58.738Z,73.26
2023-03-26T22:29:07.368Z,72.92
2023-03-26T22:34:15.705Z,72.56
2023-03-26T22:39:23.489Z,72.20
2023-03-26T22:44:31.825Z,71.86
2023-03-26T22:49:40.405Z,71.54
2023-03-26T22:54:47.864Z,71.32
2023-03-26T22:59:56.232Z,71.19
2023-03-26T23:05:03.618Z,71.06
2023-03-26T23:10:14.100Z,70.59
2023-03-26T23:15:21.456Z,70.21
2023-03-26T23:20:29.642Z,70.00
2023-03-26T23:25:37.095Z,69.77
2023-03-26T23:30:52.633Z,69.52
2023-03-26T23:36:07.531Z,69.21
2023-03-26T23:41:17.745Z,68.76
2023-03-26T23:46:31.949Z,68.32
2023-03-26T23:51:40.307Z,68.02
2023-03-26T23:56:49.415Z,67.94
